Saturday, December 15, 2018, 11:04 PM EST
Back to Local

KDAW, Skyhaven Airport

Location: Rochester, NH, United States Lat: 43.283
Local Time: 11:04 PM EST ( 4:04 GMT) Lon: -70.917
Time Zone: US/Eastern Elev: 321 ft

Show me the last for .
Show Coded

Time T Td Feel RH Dir Speed Gust Alt SLP Vis Weather Sky Remarks
2018-12-15 22:51 34 25 30 69 330° 5 - 30.28 30.27 10 CLR None
2018-12-15 21:51 33 25 30 71 350° 3 - 30.26 30.26 10 CLR None
2018-12-15 20:51 34 26 - 72 - Calm - 30.26 30.26 10 CLR None
2018-12-15 19:51 38 26 33 61 10° 6 - 30.23 30.23 10 CLR None
2018-12-15 18:51 37 28 32 69 10° 6 - 30.21 30.21 10 CLR 6-hr Min Temp (7pm): 37.0°F
6-hr Max Temp (7pm): 48.9°F
2018-12-15 17:51 37 29 34 72 360° 3 - 30.21 30.21 10 CLR None
2018-12-15 16:51 38 29 36 69 340° 3 - 30.20 30.20 10 FEW036 None
2018-12-15 15:51 43 31 39 62 320° 7 - 30.18 30.18 10 CLR None
2018-12-15 14:51 46 31 41 55 320° 10 - 30.16 30.16 10 CLR None
2018-12-15 13:51 48 32 47 53 320° 3 - 30.16 30.16 10 CLR None
2018-12-15 12:51 49 32 45 51 310° 9 - 30.14 30.13 10 CLR 6-hr Min Temp (1pm): 37.9°F
6-hr Max Temp (1pm): 51.1°F
2018-12-15 11:51 50 37 46 60 310° 9 - 30.13 30.13 10 CLR None
2018-12-15 10:51 50 38 47 63 300° 8 - 30.15 30.14 10 CLR None
2018-12-15 09:51 47 40 46 76 260° 3 - 30.15 30.15 10 CLR None
2018-12-15 08:51 42 40 - 91 - Calm - 30.16 30.16 10 CLR None
2018-12-15 07:51 41 39 - 92 - Calm - 30.14 30.14 10 CLR None
2018-12-15 06:51 40 39 - 96 - Calm - 30.12 30.12 10 CLR 6-hr Min Temp (7am): 36.0°F
6-hr Max Temp (7am): 39.9°F
2018-12-15 05:51 39 38 37 95 Variable 3 - 30.10 30.10 10 CLR None
2018-12-15 04:51 39 38 - 95 - Calm - 30.10 30.10 10 CLR None
2018-12-15 03:51 37 37 - 100 - Calm - 30.11 30.11 10 CLR None
2018-12-15 02:51 39 38 37 95 Variable 3 - 30.12 30.11 10 CLR None
2018-12-15 01:51 38 36 - 92 - Calm - 30.14 30.14 10 FEW034 None
2018-12-15 00:51 38 35 - 89 - Calm - 30.14 30.14 10 OVC110 6-hr Min Temp (1am): 36.0°F
6-hr Max Temp (1am): 37.9°F
2018-12-15 00:16 37 34 34 88 170° 3 - 30.15 - 10 FEW013 OVC070 None
2018-12-14 23:51 37 33 - 85 - Calm - 30.16 30.16 10 OVC013 24-hr Min Temp (12am): 23.0°F
24-hr Max Temp (12am): 44.1°F

Support USWX by starting your Amazon purchase here.